sensor_id;sensor_type;location;lat;lon;timestamp;pressure;altitude;pressure_sealevel;temperature;humidity
37066;BME280;22981;43.080;25.550;2023-07-20T00:02:06;99330.33;;;24.34;62.32
37066;BME280;22981;43.080;25.550;2023-07-20T00:04:34;99334.73;;;24.32;62.20
37066;BME280;22981;43.080;25.550;2023-07-20T00:07:02;99345.52;;;24.29;62.15
37066;BME280;22981;43.080;25.550;2023-07-20T00:09:30;99357.51;;;24.19;62.67
37066;BME280;22981;43.080;25.550;2023-07-20T00:11:57;99356.78;;;24.05;63.13
37066;BME280;22981;43.080;25.550;2023-07-20T00:14:26;99348.84;;;23.94;63.15
37066;BME280;22981;43.080;25.550;2023-07-20T00:16:55;99342.31;;;23.82;63.45
37066;BME280;22981;43.080;25.550;2023-07-20T00:19:25;99329.14;;;23.72;63.86
37066;BME280;22981;43.080;25.550;2023-07-20T00:21:54;99328.95;;;23.69;64.29
37066;BME280;22981;43.080;25.550;2023-07-20T00:24:22;99319.11;;;23.68;64.59
37066;BME280;22981;43.080;25.550;2023-07-20T00:26:49;99309.02;;;23.68;64.82
37066;BME280;22981;43.080;25.550;2023-07-20T00:29:17;99306.33;;;23.66;64.92
37066;BME280;22981;43.080;25.550;2023-07-20T00:31:45;99302.80;;;23.65;65.19
37066;BME280;22981;43.080;25.550;2023-07-20T00:34:12;99296.77;;;23.66;65.48
37066;BME280;22981;43.080;25.550;2023-07-20T00:36:40;99268.36;;;23.64;65.76
37066;BME280;22981;43.080;25.550;2023-07-20T00:39:08;99274.12;;;23.63;66.00
37066;BME280;22981;43.080;25.550;2023-07-20T00:41:35;99254.19;;;23.62;66.08
37066;BME280;22981;43.080;25.550;2023-07-20T00:44:03;99252.02;;;23.62;66.14
37066;BME280;22981;43.080;25.550;2023-07-20T00:46:31;99239.96;;;23.63;66.11
37066;BME280;22981;43.080;25.550;2023-07-20T00:49:00;99226.84;;;23.65;66.03
37066;BME280;22981;43.080;25.550;2023-07-20T00:51:28;99222.66;;;23.67;65.67
37066;BME280;22981;43.080;25.550;2023-07-20T00:53:56;99211.67;;;23.70;65.40
37066;BME280;22981;43.080;25.550;2023-07-20T00:56:24;99205.83;;;23.74;65.34
37066;BME280;22981;43.080;25.550;2023-07-20T00:58:52;99196.92;;;23.80;65.00
37066;BME280;22981;43.080;25.550;2023-07-20T01:01:19;99184.01;;;23.83;65.01
37066;BME280;22981;43.080;25.550;2023-07-20T01:03:47;99161.02;;;23.84;65.20
37066;BME280;22981;43.080;25.550;2023-07-20T01:11:49;98947.20;;;23.67;65.35
37066;BME280;22981;43.080;25.550;2023-07-20T01:34:49;98962.97;;;22.79;66.94
37066;BME280;22981;43.080;25.550;2023-07-20T01:37:19;98917.00;;;22.84;66.71
37066;BME280;22981;43.080;25.550;2023-07-20T01:39:50;98920.39;;;22.89;67.12
37066;BME280;22981;43.080;25.550;2023-07-20T01:42:20;98922.30;;;22.91;67.95
37066;BME280;22981;43.080;25.550;2023-07-20T01:44:50;98936.58;;;22.86;68.32
37066;BME280;22981;43.080;25.550;2023-07-20T01:47:18;98938.65;;;22.80;68.80
37066;BME280;22981;43.080;25.550;2023-07-20T01:49:46;98934.55;;;22.80;69.29
37066;BME280;22981;43.080;25.550;2023-07-20T01:52:14;98930.70;;;22.81;69.50
37066;BME280;22981;43.080;25.550;2023-07-20T01:54:42;98940.81;;;22.81;69.75
37066;BME280;22981;43.080;25.550;2023-07-20T01:57:09;98946.03;;;22.80;69.95
37066;BME280;22981;43.080;25.550;2023-07-20T01:59:37;98932.95;;;22.79;69.96
37066;BME280;22981;43.080;25.550;2023-07-20T02:02:04;98932.68;;;22.78;69.97
37066;BME280;22981;43.080;25.550;2023-07-20T02:04:32;98926.19;;;22.77;70.19
37066;BME280;22981;43.080;25.550;2023-07-20T02:07:00;98928.11;;;22.76;70.38
37066;BME280;22981;43.080;25.550;2023-07-20T02:09:27;98926.51;;;22.75;70.22
37066;BME280;22981;43.080;25.550;2023-07-20T02:11:55;98917.67;;;22.78;69.90
37066;BME280;22981;43.080;25.550;2023-07-20T02:14:22;98919.92;;;22.76;69.98
37066;BME280;22981;43.080;25.550;2023-07-20T02:16:50;98926.89;;;22.71;69.85
37066;BME280;22981;43.080;25.550;2023-07-20T02:19:22;98929.75;;;22.66;69.92
37066;BME280;22981;43.080;25.550;2023-07-20T02:21:50;98927.08;;;22.63;69.86
37066;BME280;22981;43.080;25.550;2023-07-20T02:24:17;98918.14;;;22.60;69.73
37066;BME280;22981;43.080;25.550;2023-07-20T02:26:45;98902.16;;;22.56;69.74
37066;BME280;22981;43.080;25.550;2023-07-20T02:29:12;98913.63;;;22.56;69.94
37066;BME280;22981;43.080;25.550;2023-07-20T02:31:40;98910.34;;;22.56;69.94
37066;BME280;22981;43.080;25.550;2023-07-20T02:34:09;98908.12;;;22.58;69.97
37066;BME280;22981;43.080;25.550;2023-07-20T02:36:37;98904.59;;;22.58;70.18
37066;BME280;22981;43.080;25.550;2023-07-20T02:39:04;98902.72;;;22.56;70.45
37066;BME280;22981;43.080;25.550;2023-07-20T02:41:33;98890.44;;;22.56;70.25
37066;BME280;22981;43.080;25.550;2023-07-20T02:44:01;98887.95;;;22.57;69.77
37066;BME280;22981;43.080;25.550;2023-07-20T02:46:30;98893.30;;;22.62;69.62
37066;BME280;22981;43.080;25.550;2023-07-20T02:48:57;98893.78;;;22.64;69.77
37066;BME280;22981;43.080;25.550;2023-07-20T02:51:25;98900.69;;;22.61;69.82
37066;BME280;22981;43.080;25.550;2023-07-20T02:53:52;98892.31;;;22.58;70.05
37066;BME280;22981;43.080;25.550;2023-07-20T02:56:20;98901.54;;;22.59;70.09
37066;BME280;22981;43.080;25.550;2023-07-20T02:58:49;98909.67;;;22.62;70.03
37066;BME280;22981;43.080;25.550;2023-07-20T03:01:17;98928.69;;;22.64;69.72
37066;BME280;22981;43.080;25.550;2023-07-20T03:03:44;98918.84;;;22.66;69.75
37066;BME280;22981;43.080;25.550;2023-07-20T03:06:16;98933.95;;;22.61;69.80
37066;BME280;22981;43.080;25.550;2023-07-20T03:08:44;98951.95;;;22.62;69.66
37066;BME280;22981;43.080;25.550;2023-07-20T03:11:16;98950.59;;;22.62;69.75
37066;BME280;22981;43.080;25.550;2023-07-20T03:13:44;98940.95;;;22.64;69.63
37066;BME280;22981;43.080;25.550;2023-07-20T03:16:13;98942.64;;;22.63;69.51
37066;BME280;22981;43.080;25.550;2023-07-20T03:18:42;98945.98;;;22.60;69.52
37066;BME280;22981;43.080;25.550;2023-07-20T03:21:10;98964.33;;;22.57;69.83
37066;BME280;22981;43.080;25.550;2023-07-20T03:23:41;98970.67;;;22.55;69.99
37066;BME280;22981;43.080;25.550;2023-07-20T03:26:09;98978.91;;;22.52;70.33
37066;BME280;22981;43.080;25.550;2023-07-20T03:28:37;98976.45;;;22.53;70.35
37066;BME280;22981;43.080;25.550;2023-07-20T03:31:05;98979.61;;;22.58;70.38
37066;BME280;22981;43.080;25.550;2023-07-20T03:33:34;98986.62;;;22.61;70.45
37066;BME280;22981;43.080;25.550;2023-07-20T03:36:02;98996.70;;;22.61;70.54
37066;BME280;22981;43.080;25.550;2023-07-20T03:38:29;99011.70;;;22.61;70.67
37066;BME280;22981;43.080;25.550;2023-07-20T03:40:58;99004.08;;;22.60;70.67
37066;BME280;22981;43.080;25.550;2023-07-20T03:43:27;99015.55;;;22.60;70.64
37066;BME280;22981;43.080;25.550;2023-07-20T03:45:55;99011.97;;;22.62;70.56
37066;BME280;22981;43.080;25.550;2023-07-20T03:48:24;99011.17;;;22.61;70.45
37066;BME280;22981;43.080;25.550;2023-07-20T03:50:53;99014.99;;;22.60;70.56
37066;BME280;22981;43.080;25.550;2023-07-20T03:53:21;99019.41;;;22.59;70.69
37066;BME280;22981;43.080;25.550;2023-07-20T03:55:50;99017.23;;;22.58;70.77
37066;BME280;22981;43.080;25.550;2023-07-20T03:58:19;99010.17;;;22.57;70.80
37066;BME280;22981;43.080;25.550;2023-07-20T04:00:51;99012.95;;;22.55;70.88
37066;BME280;22981;43.080;25.550;2023-07-20T04:03:20;99013.00;;;22.52;70.95
37066;BME280;22981;43.080;25.550;2023-07-20T04:05:49;99012.01;;;22.48;71.18
37066;BME280;22981;43.080;25.550;2023-07-20T04:08:17;99016.42;;;22.46;71.33
37066;BME280;22981;43.080;25.550;2023-07-20T04:10:45;99022.55;;;22.52;71.37
37066;BME280;22981;43.080;25.550;2023-07-20T04:13:12;99019.16;;;22.58;71.28
37066;BME280;22981;43.080;25.550;2023-07-20T04:15:40;99032.73;;;22.60;71.33
37066;BME280;22981;43.080;25.550;2023-07-20T04:18:07;99037.81;;;22.64;71.36
37066;BME280;22981;43.080;25.550;2023-07-20T04:20:35;99036.88;;;22.69;71.31
37066;BME280;22981;43.080;25.550;2023-07-20T04:23:03;99033.30;;;22.71;71.22
37066;BME280;22981;43.080;25.550;2023-07-20T04:25:30;99027.28;;;22.71;71.10
37066;BME280;22981;43.080;25.550;2023-07-20T04:28:00;99027.52;;;22.72;70.96
37066;BME280;22981;43.080;25.550;2023-07-20T04:30:27;99031.86;;;22.73;70.98
37066;BME280;22981;43.080;25.550;2023-07-20T04:32:55;99030.44;;;22.76;70.93
37066;BME280;22981;43.080;25.550;2023-07-20T04:35:51;99023.94;;;22.74;70.87
37066;BME280;22981;43.080;25.550;2023-07-20T04:38:19;99012.14;;;22.77;70.81
37066;BME280;22981;43.080;25.550;2023-07-20T04:40:48;99018.55;;;22.83;70.68
37066;BME280;22981;43.080;25.550;2023-07-20T04:43:17;99022.26;;;22.87;70.51
37066;BME280;22981;43.080;25.550;2023-07-20T04:45:45;99019.67;;;22.93;70.41
37066;BME280;22981;43.080;25.550;2023-07-20T04:48:15;99018.97;;;22.99;70.31
37066;BME280;22981;43.080;25.550;2023-07-20T04:50:45;99014.50;;;23.03;70.33
37066;BME280;22981;43.080;25.550;2023-07-20T04:53:13;99011.09;;;23.09;70.36
37066;BME280;22981;43.080;25.550;2023-07-20T04:55:46;99007.66;;;23.14;70.34
37066;BME280;22981;43.080;25.550;2023-07-20T04:58:10;99011.56;;;23.22;70.12
37066;BME280;22981;43.080;25.550;2023-07-20T05:00:39;99011.33;;;23.30;69.81
37066;BME280;22981;43.080;25.550;2023-07-20T05:03:06;99011.07;;;23.40;69.67
37066;BME280;22981;43.080;25.550;2023-07-20T05:05:34;99008.43;;;23.46;69.50
37066;BME280;22981;43.080;25.550;2023-07-20T05:08:01;99005.31;;;23.50;69.77
37066;BME280;22981;43.080;25.550;2023-07-20T05:10:29;98994.89;;;23.52;70.02
37066;BME280;22981;43.080;25.550;2023-07-20T05:12:57;98989.84;;;23.57;69.97
37066;BME280;22981;43.080;25.550;2023-07-20T05:15:24;98987.42;;;23.64;69.89
37066;BME280;22981;43.080;25.550;2023-07-20T05:17:52;98993.21;;;23.73;69.98
37066;BME280;22981;43.080;25.550;2023-07-20T05:20:19;98996.66;;;23.77;70.05
37066;BME280;22981;43.080;25.550;2023-07-20T05:22:47;98993.53;;;23.81;70.09
37066;BME280;22981;43.080;25.550;2023-07-20T05:25:15;99003.67;;;23.89;70.22
37066;BME280;22981;43.080;25.550;2023-07-20T05:27:45;99004.02;;;23.96;70.25
37066;BME280;22981;43.080;25.550;2023-07-20T05:30:12;99010.30;;;24.05;70.22
37066;BME280;22981;43.080;25.550;2023-07-20T05:32:40;99003.58;;;24.11;69.89
37066;BME280;22981;43.080;25.550;2023-07-20T05:35:08;99005.58;;;24.17;69.87
37066;BME280;22981;43.080;25.550;2023-07-20T05:37:37;98989.01;;;24.22;69.56
37066;BME280;22981;43.080;25.550;2023-07-20T05:40:06;98991.41;;;24.32;69.10
37066;BME280;22981;43.080;25.550;2023-07-20T05:42:34;98994.73;;;24.40;68.86
37066;BME280;22981;43.080;25.550;2023-07-20T05:45:01;98996.36;;;24.50;68.52
37066;BME280;22981;43.080;25.550;2023-07-20T05:47:29;98993.69;;;24.56;68.14
37066;BME280;22981;43.080;25.550;2023-07-20T05:49:57;98989.98;;;24.61;67.82
37066;BME280;22981;43.080;25.550;2023-07-20T05:52:24;98992.23;;;24.67;67.82
37066;BME280;22981;43.080;25.550;2023-07-20T05:54:52;98991.50;;;24.73;67.91
37066;BME280;22981;43.080;25.550;2023-07-20T05:57:19;98988.81;;;24.79;67.42
37066;BME280;22981;43.080;25.550;2023-07-20T05:59:47;98983.19;;;24.84;66.95
37066;BME280;22981;43.080;25.550;2023-07-20T06:02:14;98989.94;;;24.87;66.63
37066;BME280;22981;43.080;25.550;2023-07-20T06:04:42;98992.03;;;24.90;66.47
37066;BME280;22981;43.080;25.550;2023-07-20T06:07:09;98987.92;;;24.90;65.44
37066;BME280;22981;43.080;25.550;2023-07-20T06:09:37;98987.84;;;24.84;64.94
37066;BME280;22981;43.080;25.550;2023-07-20T06:12:05;98990.27;;;24.85;64.98
37066;BME280;22981;43.080;25.550;2023-07-20T06:14:33;98985.98;;;24.90;65.05
37066;BME280;22981;43.080;25.550;2023-07-20T06:17:01;98993.45;;;24.96;64.50
37066;BME280;22981;43.080;25.550;2023-07-20T06:19:29;98984.52;;;25.02;63.59
37066;BME280;22981;43.080;25.550;2023-07-20T06:21:56;98982.34;;;25.01;63.37
37066;BME280;22981;43.080;25.550;2023-07-20T06:24:24;98988.13;;;24.99;63.20
37066;BME280;22981;43.080;25.550;2023-07-20T06:26:52;98981.85;;;24.99;63.44
37066;BME280;22981;43.080;25.550;2023-07-20T06:29:19;98985.47;;;25.06;63.06
37066;BME280;22981;43.080;25.550;2023-07-20T06:31:47;98987.83;;;25.10;62.99
37066;BME280;22981;43.080;25.550;2023-07-20T06:34:14;98994.41;;;25.09;62.57
37066;BME280;22981;43.080;25.550;2023-07-20T06:36:42;98989.58;;;25.14;62.70
37066;BME280;22981;43.080;25.550;2023-07-20T06:39:09;98985.52;;;25.20;62.37
37066;BME280;22981;43.080;25.550;2023-07-20T06:41:37;98985.17;;;25.22;61.77
37066;BME280;22981;43.080;25.550;2023-07-20T06:44:05;98983.39;;;25.26;61.65
37066;BME280;22981;43.080;25.550;2023-07-20T06:46:32;98985.06;;;25.33;62.00
37066;BME280;22981;43.080;25.550;2023-07-20T06:49:00;98986.73;;;25.40;62.13
37066;BME280;22981;43.080;25.550;2023-07-20T06:51:27;98988.48;;;25.45;61.90
37066;BME280;22981;43.080;25.550;2023-07-20T06:53:55;98984.75;;;25.50;62.07
37066;BME280;22981;43.080;25.550;2023-07-20T06:56:23;98995.18;;;25.56;62.18
37066;BME280;22981;43.080;25.550;2023-07-20T06:58:50;98994.45;;;25.62;61.78
37066;BME280;22981;43.080;25.550;2023-07-20T07:01:18;98990.59;;;25.69;61.85
37066;BME280;22981;43.080;25.550;2023-07-20T07:03:47;98997.58;;;25.81;61.80
37066;BME280;22981;43.080;25.550;2023-07-20T07:06:15;99000.75;;;25.92;61.27
37066;BME280;22981;43.080;25.550;2023-07-20T07:08:42;98998.41;;;26.03;60.68
37066;BME280;22981;43.080;25.550;2023-07-20T07:11:11;98995.28;;;26.13;60.01
37066;BME280;22981;43.080;25.550;2023-07-20T07:13:39;98999.33;;;26.21;59.62
37066;BME280;22981;43.080;25.550;2023-07-20T07:16:06;98997.55;;;26.32;59.12
37066;BME280;22981;43.080;25.550;2023-07-20T07:18:34;99001.50;;;26.43;58.97
37066;BME280;22981;43.080;25.550;2023-07-20T07:21:01;99006.69;;;26.51;58.75
37066;BME280;22981;43.080;25.550;2023-07-20T07:23:29;99008.55;;;26.59;58.42
37066;BME280;22981;43.080;25.550;2023-07-20T07:25:56;99007.45;;;26.66;57.84
37066;BME280;22981;43.080;25.550;2023-07-20T07:28:24;99005.54;;;26.73;57.58
37066;BME280;22981;43.080;25.550;2023-07-20T07:30:52;99006.56;;;26.74;57.44
37066;BME280;22981;43.080;25.550;2023-07-20T07:33:19;99005.10;;;26.77;57.22
37066;BME280;22981;43.080;25.550;2023-07-20T07:35:47;99003.16;;;26.77;57.24
37066;BME280;22981;43.080;25.550;2023-07-20T07:38:15;99006.70;;;26.84;56.85
37066;BME280;22981;43.080;25.550;2023-07-20T07:40:42;99005.81;;;26.92;56.65
37066;BME280;22981;43.080;25.550;2023-07-20T07:43:10;99002.63;;;27.02;56.46
37066;BME280;22981;43.080;25.550;2023-07-20T07:45:38;99001.76;;;27.10;55.99
37066;BME280;22981;43.080;25.550;2023-07-20T07:48:06;99002.71;;;27.20;55.82
37066;BME280;22981;43.080;25.550;2023-07-20T07:50:34;98998.00;;;27.27;56.07
37066;BME280;22981;43.080;25.550;2023-07-20T07:53:02;99004.91;;;27.33;56.22
37066;BME280;22981;43.080;25.550;2023-07-20T07:55:30;99009.84;;;27.46;55.82
37066;BME280;22981;43.080;25.550;2023-07-20T07:57:58;99010.39;;;27.58;55.47
37066;BME280;22981;43.080;25.550;2023-07-20T08:00:26;99009.27;;;27.71;55.00
37066;BME280;22981;43.080;25.550;2023-07-20T08:02:54;99007.45;;;27.81;54.60
37066;BME280;22981;43.080;25.550;2023-07-20T08:05:21;99007.90;;;27.89;54.48
37066;BME280;22981;43.080;25.550;2023-07-20T08:07:49;99003.51;;;28.01;54.61
37066;BME280;22981;43.080;25.550;2023-07-20T08:10:16;99007.87;;;28.14;55.04
37066;BME280;22981;43.080;25.550;2023-07-20T08:12:44;99005.20;;;28.24;54.52
37066;BME280;22981;43.080;25.550;2023-07-20T08:15:12;99007.23;;;28.33;53.92
37066;BME280;22981;43.080;25.550;2023-07-20T08:17:41;99009.98;;;28.39;53.84
37066;BME280;22981;43.080;25.550;2023-07-20T08:20:12;99009.28;;;28.48;53.15
37066;BME280;22981;43.080;25.550;2023-07-20T08:22:39;99016.09;;;28.60;52.72
37066;BME280;22981;43.080;25.550;2023-07-20T08:25:08;99013.19;;;28.69;52.55
37066;BME280;22981;43.080;25.550;2023-07-20T08:27:37;99013.18;;;28.75;52.61
37066;BME280;22981;43.080;25.550;2023-07-20T08:30:05;99019.05;;;28.74;52.97
37066;BME280;22981;43.080;25.550;2023-07-20T08:32:34;99024.73;;;28.81;52.35
37066;BME280;22981;43.080;25.550;2023-07-20T08:35:01;99008.94;;;28.93;52.03
37066;BME280;22981;43.080;25.550;2023-07-20T08:37:29;99016.38;;;29.05;51.88
37066;BME280;22981;43.080;25.550;2023-07-20T08:39:57;99015.84;;;29.15;51.81
37066;BME280;22981;43.080;25.550;2023-07-20T08:42:25;99012.00;;;29.26;51.82
37066;BME280;22981;43.080;25.550;2023-07-20T08:44:53;99012.50;;;29.38;51.47
37066;BME280;22981;43.080;25.550;2023-07-20T08:47:22;99006.44;;;29.48;51.20
37066;BME280;22981;43.080;25.550;2023-07-20T08:49:52;99006.28;;;29.57;50.95
37066;BME280;22981;43.080;25.550;2023-07-20T08:52:23;99012.98;;;29.65;50.66
37066;BME280;22981;43.080;25.550;2023-07-20T08:54:53;99019.23;;;29.72;50.59
37066;BME280;22981;43.080;25.550;2023-07-20T08:57:21;99012.17;;;29.81;50.13
37066;BME280;22981;43.080;25.550;2023-07-20T08:59:50;99019.52;;;29.92;50.48
37066;BME280;22981;43.080;25.550;2023-07-20T09:02:20;99015.09;;;29.98;50.27
37066;BME280;22981;43.080;25.550;2023-07-20T09:04:49;99024.05;;;30.01;49.70
37066;BME280;22981;43.080;25.550;2023-07-20T09:07:18;99029.86;;;30.05;49.86
37066;BME280;22981;43.080;25.550;2023-07-20T09:09:46;99033.50;;;30.09;49.84
37066;BME280;22981;43.080;25.550;2023-07-20T09:12:15;99037.69;;;30.19;49.75
37066;BME280;22981;43.080;25.550;2023-07-20T09:14:44;99036.55;;;30.30;49.24
37066;BME280;22981;43.080;25.550;2023-07-20T09:17:14;99040.98;;;30.25;49.23
37066;BME280;22981;43.080;25.550;2023-07-20T09:23:07;99041.70;;;30.22;49.02
37066;BME280;22981;43.080;25.550;2023-07-20T09:25:36;99045.05;;;30.31;48.87
37066;BME280;22981;43.080;25.550;2023-07-20T09:28:03;99032.48;;;30.43;48.74
37066;BME280;22981;43.080;25.550;2023-07-20T09:30:31;99019.47;;;30.53;48.96
37066;BME280;22981;43.080;25.550;2023-07-20T09:32:59;99001.74;;;30.64;49.16
37066;BME280;22981;43.080;25.550;2023-07-20T09:35:27;99001.17;;;30.74;49.09
37066;BME280;22981;43.080;25.550;2023-07-20T09:38:01;98994.27;;;30.84;49.48
37066;BME280;22981;43.080;25.550;2023-07-20T09:40:29;98983.70;;;30.89;49.15
37066;BME280;22981;43.080;25.550;2023-07-20T09:42:56;98991.48;;;30.93;48.40
37066;BME280;22981;43.080;25.550;2023-07-20T09:45:33;98999.46;;;30.99;47.84
37066;BME280;22981;43.080;25.550;2023-07-20T09:48:07;98986.92;;;31.05;47.73
37066;BME280;22981;43.080;25.550;2023-07-20T09:50:42;98976.69;;;31.05;47.85
37066;BME280;22981;43.080;25.550;2023-07-20T09:53:13;98971.16;;;31.05;47.95
37066;BME280;22981;43.080;25.550;2023-07-20T09:55:43;98965.94;;;31.13;47.38
37066;BME280;22981;43.080;25.550;2023-07-20T09:58:11;98963.16;;;31.23;47.18
37066;BME280;22981;43.080;25.550;2023-07-20T10:00:40;98957.84;;;31.24;47.29
37066;BME280;22981;43.080;25.550;2023-07-20T10:03:11;98945.69;;;31.06;47.72
37066;BME280;22981;43.080;25.550;2023-07-20T10:05:47;98951.05;;;30.85;47.99
37066;BME280;22981;43.080;25.550;2023-07-20T10:08:12;98951.29;;;30.67;47.99
37066;BME280;22981;43.080;25.550;2023-07-20T10:10:41;98958.58;;;30.75;47.83
37066;BME280;22981;43.080;25.550;2023-07-20T10:13:14;98958.73;;;30.96;47.69
37066;BME280;22981;43.080;25.550;2023-07-20T10:15:50;98952.50;;;31.12;47.89
37066;BME280;22981;43.080;25.550;2023-07-20T10:18:22;98950.55;;;31.26;47.22
37066;BME280;22981;43.080;25.550;2023-07-20T10:20:48;98949.31;;;31.33;46.52
37066;BME280;22981;43.080;25.550;2023-07-20T10:23:17;98948.27;;;31.41;46.27
37066;BME280;22981;43.080;25.550;2023-07-20T10:25:46;98958.63;;;31.48;46.39
37066;BME280;22981;43.080;25.550;2023-07-20T10:28:14;98954.97;;;31.53;46.14
37066;BME280;22981;43.080;25.550;2023-07-20T10:30:42;98945.11;;;31.56;46.06
37066;BME280;22981;43.080;25.550;2023-07-20T10:33:11;98948.97;;;31.61;45.86
37066;BME280;22981;43.080;25.550;2023-07-20T10:36:03;98942.34;;;31.69;46.12
37066;BME280;22981;43.080;25.550;2023-07-20T10:38:40;98937.12;;;31.77;45.65
37066;BME280;22981;43.080;25.550;2023-07-20T10:41:18;98928.47;;;31.79;45.37
37066;BME280;22981;43.080;25.550;2023-07-20T10:43:46;98929.08;;;31.82;45.41
37066;BME280;22981;43.080;25.550;2023-07-20T10:46:14;98925.06;;;31.89;45.77
37066;BME280;22981;43.080;25.550;2023-07-20T10:49:01;98932.29;;;31.97;45.87
37066;BME280;22981;43.080;25.550;2023-07-20T10:51:29;98933.19;;;32.05;45.31
37066;BME280;22981;43.080;25.550;2023-07-20T10:53:57;98930.23;;;32.07;45.30
37066;BME280;22981;43.080;25.550;2023-07-20T10:56:28;98926.91;;;32.08;45.00
37066;BME280;22981;43.080;25.550;2023-07-20T10:58:58;98929.44;;;32.07;45.12
37066;BME280;22981;43.080;25.550;2023-07-20T11:01:30;98928.49;;;32.09;44.72
37066;BME280;22981;43.080;25.550;2023-07-20T11:04:00;98925.77;;;32.12;44.50
37066;BME280;22981;43.080;25.550;2023-07-20T11:06:30;98920.59;;;32.11;44.49
37066;BME280;22981;43.080;25.550;2023-07-20T11:09:13;98922.61;;;32.14;44.74
37066;BME280;22981;43.080;25.550;2023-07-20T11:11:43;98913.61;;;32.21;44.72
37066;BME280;22981;43.080;25.550;2023-07-20T11:14:25;98914.06;;;32.26;44.86
37066;BME280;22981;43.080;25.550;2023-07-20T11:16:54;98911.34;;;32.30;44.45
37066;BME280;22981;43.080;25.550;2023-07-20T11:19:25;98905.00;;;32.29;44.48
37066;BME280;22981;43.080;25.550;2023-07-20T11:21:55;98894.53;;;32.32;44.83
37066;BME280;22981;43.080;25.550;2023-07-20T11:24:23;98900.11;;;32.36;44.17
37066;BME280;22981;43.080;25.550;2023-07-20T11:26:53;98904.14;;;32.38;44.26
37066;BME280;22981;43.080;25.550;2023-07-20T11:29:22;98895.48;;;32.44;44.26
37066;BME280;22981;43.080;25.550;2023-07-20T11:31:51;98882.18;;;32.39;44.24
37066;BME280;22981;43.080;25.550;2023-07-20T11:34:20;98897.25;;;32.29;44.34
37066;BME280;22981;43.080;25.550;2023-07-20T11:36:50;98897.69;;;32.31;44.18
37066;BME280;22981;43.080;25.550;2023-07-20T11:39:21;98895.04;;;32.38;44.10
37066;BME280;22981;43.080;25.550;2023-07-20T11:41:51;98891.08;;;32.39;43.85
37066;BME280;22981;43.080;25.550;2023-07-20T11:44:19;98883.41;;;32.42;43.83
37066;BME280;22981;43.080;25.550;2023-07-20T11:46:49;98877.48;;;32.44;43.96
37066;BME280;22981;43.080;25.550;2023-07-20T11:49:17;98882.63;;;32.45;44.32
37066;BME280;22981;43.080;25.550;2023-07-20T11:51:44;98879.45;;;32.43;43.24
37066;BME280;22981;43.080;25.550;2023-07-20T11:54:12;98880.41;;;32.41;42.82
37066;BME280;22981;43.080;25.550;2023-07-20T11:56:41;98875.98;;;32.36;42.36
37066;BME280;22981;43.080;25.550;2023-07-20T11:59:09;98884.88;;;32.36;42.81
37066;BME280;22981;43.080;25.550;2023-07-20T12:01:36;98865.69;;;32.37;42.36
37066;BME280;22981;43.080;25.550;2023-07-20T12:04:04;98863.47;;;32.33;41.64
37066;BME280;22981;43.080;25.550;2023-07-20T12:06:34;98850.76;;;32.28;41.11
37066;BME280;22981;43.080;25.550;2023-07-20T12:09:02;98858.23;;;32.24;41.35
37066;BME280;22981;43.080;25.550;2023-07-20T12:11:42;98842.25;;;32.27;41.59
37066;BME280;22981;43.080;25.550;2023-07-20T12:14:07;98846.45;;;32.31;41.84
37066;BME280;22981;43.080;25.550;2023-07-20T12:16:36;98842.45;;;32.28;41.74
37066;BME280;22981;43.080;25.550;2023-07-20T12:19:07;98829.75;;;32.24;42.06
37066;BME280;22981;43.080;25.550;2023-07-20T12:21:36;98819.34;;;32.30;41.39
37066;BME280;22981;43.080;25.550;2023-07-20T12:24:05;98817.48;;;32.25;40.68
37066;BME280;22981;43.080;25.550;2023-07-20T12:26:33;98811.48;;;31.99;40.96
37066;BME280;22981;43.080;25.550;2023-07-20T12:29:01;98805.75;;;31.67;41.19
37066;BME280;22981;43.080;25.550;2023-07-20T12:31:34;98789.86;;;31.44;41.42
37066;BME280;22981;43.080;25.550;2023-07-20T12:34:00;98788.19;;;31.26;41.71
37066;BME280;22981;43.080;25.550;2023-07-20T12:36:27;98786.09;;;31.29;42.35
37066;BME280;22981;43.080;25.550;2023-07-20T12:38:55;98787.94;;;31.48;42.25
37066;BME280;22981;43.080;25.550;2023-07-20T12:41:22;98784.66;;;31.56;41.82
37066;BME280;22981;43.080;25.550;2023-07-20T12:43:50;98794.08;;;31.51;41.32
37066;BME280;22981;43.080;25.550;2023-07-20T12:46:19;98796.19;;;31.45;41.45
37066;BME280;22981;43.080;25.550;2023-07-20T12:48:46;98796.11;;;31.54;41.96
37066;BME280;22981;43.080;25.550;2023-07-20T12:51:14;98794.05;;;31.64;40.83
37066;BME280;22981;43.080;25.550;2023-07-20T12:53:42;98791.41;;;31.58;41.27
37066;BME280;22981;43.080;25.550;2023-07-20T12:56:09;98794.27;;;31.49;42.03
37066;BME280;22981;43.080;25.550;2023-07-20T12:58:37;98803.20;;;31.38;41.77
37066;BME280;22981;43.080;25.550;2023-07-20T13:01:05;98800.95;;;31.31;41.74
37066;BME280;22981;43.080;25.550;2023-07-20T13:03:32;98804.07;;;31.29;41.93
37066;BME280;22981;43.080;25.550;2023-07-20T13:06:00;98795.77;;;31.29;42.79
37066;BME280;22981;43.080;25.550;2023-07-20T13:08:27;98796.48;;;31.26;42.62
37066;BME280;22981;43.080;25.550;2023-07-20T13:10:55;98793.80;;;31.30;42.68
37066;BME280;22981;43.080;25.550;2023-07-20T13:13:23;98796.98;;;31.45;42.17
37066;BME280;22981;43.080;25.550;2023-07-20T13:15:50;98792.20;;;31.59;41.51
37066;BME280;22981;43.080;25.550;2023-07-20T13:18:18;98785.73;;;31.61;40.50
37066;BME280;22981;43.080;25.550;2023-07-20T13:20:46;98784.35;;;31.48;40.48
37066;BME280;22981;43.080;25.550;2023-07-20T13:23:13;98774.85;;;31.45;40.51
37066;BME280;22981;43.080;25.550;2023-07-20T13:25:41;98781.05;;;31.52;40.25
37066;BME280;22981;43.080;25.550;2023-07-20T13:28:09;98779.13;;;31.56;40.22